Time;durP1;ratioP1;P1;durP2;ratioP2;P2;SDS_P1;SDS_P2;PMS_P1;PMS_P2;Temp;Humidity;BMP_temperature;BMP_pressure;BME280_temperature;BME280_humidity;BME280_pressure;Samples;Min_cycle;Max_cycle;Signal;HPM_P1;HPM_P2
2022/05/21 00:04:42;;;;;;;5.03;2.33;;;;;;;16.89;68.06;100414.94;18304764;32;20119;-66
2022/05/21 00:14:47;;;;;;;4.87;2.12;;;;;;;16.88;68.11;100416.69;18305036;32;20106;-66
2022/05/21 00:24:50;;;;;;;5.93;2.50;;;;;;;17.24;66.76;100401.66;18304664;32;20449;-67
2022/05/21 00:34:55;;;;;;;6.70;2.78;;;;;;;16.49;69.12;100383.50;18304658;32;20111;-66
2022/05/21 00:44:58;;;;;;;7.40;3.03;;;;;;;16.54;69.03;100375.47;18304216;32;20395;-66
2022/05/21 00:55:09;;;;;;;6.90;2.78;;;;;;;16.14;70.21;100385.31;18304181;32;20106;-66
2022/05/21 01:05:15;;;;;;;8.60;3.30;;;;;;;16.45;69.54;100373.06;18302547;32;20110;-66
2022/05/21 01:15:23;;;;;;;5.72;2.75;;;;;;;16.81;68.19;100391.41;18303679;32;20104;-66
2022/05/21 01:25:31;;;;;;;7.03;3.10;;;;;;;16.23;70.85;100405.25;18303335;32;20438;-66
2022/05/21 01:35:35;;;;;;;5.43;2.80;;;;;;;16.69;69.22;100402.31;18303180;32;20122;-67
2022/05/21 01:45:39;;;;;;;5.50;2.85;;;;;;;16.37;71.00;100394.38;18302052;32;20147;-66
2022/05/21 01:55:43;;;;;;;7.12;3.72;;;;;;;16.40;71.67;100410.09;18302634;32;20113;-66
2022/05/21 02:05:48;;;;;;;9.05;3.65;;;;;;;16.29;73.63;100422.69;18301312;32;20101;-66
2022/05/21 02:15:51;;;;;;;8.82;3.78;;;;;;;17.11;70.98;100477.66;18300661;32;20115;-66
2022/05/21 02:25:59;;;;;;;8.40;3.67;;;;;;;17.57;69.45;100504.47;18299805;32;20232;-66
2022/05/21 02:36:02;;;;;;;10.25;3.72;;;;;;;17.79;68.46;100552.19;18299843;32;20478;-66
2022/05/21 02:46:07;;;;;;;8.75;3.83;;;;;;;17.65;69.52;100546.50;18298585;32;20435;-66
2022/05/21 02:56:14;;;;;;;5.72;2.85;;;;;;;18.10;70.08;100559.22;18297840;32;20101;-68
2022/05/21 03:06:18;;;;;;;4.30;2.33;;;;;;;20.51;64.94;100552.44;18297209;32;20112;-66
2022/05/21 03:16:21;;;;;;;4.25;2.00;;;;;;;20.45;66.17;100555.34;18296674;32;20105;-67
2022/05/21 03:26:26;;;;;;;5.62;2.08;;;;;;;20.73;65.43;100572.75;18299315;32;20700;-66
2022/05/21 03:36:29;;;;;;;6.72;2.40;;;;;;;20.68;67.64;100572.06;18306826;32;20370;-67
2022/05/21 03:46:38;;;;;;;5.10;1.98;;;;;;;21.04;67.55;100518.41;18291823;32;20361;-66
2022/05/21 03:56:41;;;;;;;9.05;2.92;;;;;;;20.29;70.58;100539.22;18305213;32;20112;-66
2022/05/21 04:06:45;;;;;;;6.60;2.45;;;;;;;19.75;74.09;100468.88;18305008;32;20112;-66
2022/05/21 04:16:49;;;;;;;5.85;2.53;;;;;;;19.22;77.81;100460.28;18300820;32;20109;-67
2022/05/21 04:26:54;;;;;;;6.07;2.22;;;;;;;18.98;79.13;100436.44;18302091;32;20094;-66
2022/05/21 04:36:57;;;;;;;7.57;2.37;;;;;;;19.02;78.88;100426.66;18303201;32;20139;-66
2022/05/21 04:47:06;;;;;;;5.15;2.22;;;;;;;19.06;79.44;100433.53;18308223;32;20093;-66
2022/05/21 04:57:10;;;;;;;6.57;2.20;;;;;;;19.35;77.84;100417.47;18305082;32;20373;-66
2022/05/21 05:07:17;;;;;;;4.47;2.30;;;;;;;19.58;77.17;100431.59;18304763;32;20097;-66
2022/05/21 05:17:22;;;;;;;7.22;2.12;;;;;;;19.35;79.32;100441.28;18313737;32;20405;-66
2022/05/21 05:27:26;;;;;;;5.35;2.25;;;;;;;19.81;76.92;100465.13;18304074;32;20113;-66
2022/05/21 05:37:29;;;;;;;5.80;2.10;;;;;;;19.52;78.58;100494.44;18315745;32;20109;-66
2022/05/21 05:47:34;;;;;;;4.37;1.77;;;;;;;20.14;75.12;100493.84;18302501;32;20093;-65
2022/05/21 05:57:37;;;;;;;3.37;1.77;;;;;;;19.63;75.15;100469.34;18303153;32;20386;-66
2022/05/21 06:07:47;;;;;;;3.78;1.55;;;;;;;20.34;71.52;100474.47;18287854;32;20387;-66
2022/05/21 06:17:52;;;;;;;3.20;1.52;;;;;;;20.44;71.81;100471.44;18303159;32;20094;-66
2022/05/21 06:27:57;;;;;;;4.55;1.50;;;;;;;20.82;68.53;100473.34;18302032;32;20085;-66
2022/05/21 06:38:00;;;;;;;2.58;1.50;;;;;;;20.98;67.97;100508.06;18363392;32;20120;-66
2022/05/21 06:48:07;;;;;;;4.45;1.90;;;;;;;20.77;69.56;100477.06;18363034;32;20101;-66
2022/05/21 06:58:11;;;;;;;6.37;1.62;;;;;;;20.30;73.43;100462.28;18362930;32;20089;-64
2022/05/21 07:08:19;;;;;;;5.45;2.20;;;;;;;20.22;75.20;100470.53;18370015;32;20434;-65
2022/05/21 07:18:23;;;;;;;5.28;2.08;;;;;;;20.66;75.53;100496.09;18368265;32;20643;-65
2022/05/21 07:28:28;;;;;;;6.00;2.37;;;;;;;20.70;78.02;100482.72;18371259;32;20460;-65
2022/05/21 07:38:31;;;;;;;4.85;2.05;;;;;;;21.33;74.71;100487.03;18371098;32;20437;-66
2022/05/21 07:48:35;;;;;;;4.90;2.10;;;;;;;21.41;71.66;100502.63;18370593;32;20103;-65
2022/05/21 07:58:43;;;;;;;4.70;2.12;;;;;;;22.37;67.66;100475.91;18370772;32;20089;-66
2022/05/21 08:08:50;;;;;;;4.47;2.05;;;;;;;23.05;63.79;100451.16;18355889;32;20089;-66
2022/05/21 08:18:53;;;;;;;6.03;2.10;;;;;;;23.81;59.67;100447.00;18369523;32;20116;-66
2022/05/21 08:28:58;;;;;;;3.92;1.77;;;;;;;22.94;61.47;100438.41;18369386;32;20096;-66
2022/05/21 08:39:03;;;;;;;5.93;2.40;;;;;;;22.76;62.01;100421.59;18369940;32;20090;-66
2022/05/21 08:49:13;;;;;;;6.93;2.12;;;;;;;23.24;60.66;100442.16;18368998;32;20116;-66
2022/05/21 08:59:19;;;;;;;4.23;2.07;;;;;;;23.64;60.84;100455.09;18369130;32;20115;-66
2022/05/21 09:09:34;;;;;;;5.68;2.37;;;;;;;24.22;60.14;100461.56;18368739;32;20102;-67
2022/05/21 09:19:42;;;;;;;6.18;3.10;;;;;;;24.57;58.88;100470.25;18368628;32;20132;-65
2022/05/21 09:29:47;;;;;;;4.62;2.28;;;;;;;24.57;57.47;100492.44;18366744;32;20390;-66
2022/05/21 09:39:51;;;;;;;4.18;2.00;;;;;;;25.19;54.79;100494.06;18367695;32;20089;-66
2022/05/21 09:50:05;;;;;;;6.50;2.75;;;;;;;25.23;52.43;100505.41;18367013;32;20112;-66
2022/05/21 10:00:21;;;;;;;4.90;2.10;;;;;;;26.08;52.67;100495.63;18366754;32;20457;-66
2022/05/21 10:20:54;;;;;;;4.93;1.85;;;;;;;27.06;44.63;100497.94;18365556;32;20539;-66
2022/05/21 10:31:16;;;;;;;3.65;1.27;;;;;;;27.42;40.44;100490.94;18365005;32;20089;-66
2022/05/21 10:41:34;;;;;;;2.62;1.05;;;;;;;27.73;38.55;100487.87;18358016;32;20105;-66
2022/05/21 10:51:49;;;;;;;2.70;1.25;;;;;;;27.80;37.54;100490.94;18372599;32;20441;-67
2022/05/21 11:01:59;;;;;;;1.80;1.10;;;;;;;27.92;38.67;100486.50;18371832;32;20123;-67
2022/05/21 11:12:04;;;;;;;;;;;;;;;27.98;37.99;100478.84;18359256;32;20366;-67
2022/05/21 11:22:11;;;;;;;1.55;1.00;;;;;;;28.49;35.58;100482.22;18372907;32;19995;-67
2022/05/21 11:42:50;;;;;;;1.20;1.00;;;;;;;28.61;33.83;100475.06;18371183;32;20092;-66
2022/05/21 11:53:08;;;;;;;3.45;1.48;;;;;;;28.78;35.46;100473.72;18366901;32;20077;-67
2022/05/21 12:03:20;;;;;;;1.73;0.90;;;;;;;28.61;34.45;100479.59;18343978;32;20123;-66
2022/05/21 12:13:50;;;;;;;1.70;0.90;;;;;;;29.46;29.54;100480.16;18302158;32;20090;-65
2022/05/21 12:24:02;;;;;;;2.40;1.10;;;;;;;29.10;30.87;100474.87;18299987;32;20089;-66
2022/05/21 12:34:29;;;;;;;1.12;0.88;;;;;;;28.65;30.78;100468.50;18301701;32;20115;-66
2022/05/21 12:44:38;;;;;;;1.50;1.00;;;;;;;29.71;29.92;100462.00;18301122;32;20155;-66
2022/05/21 12:54:42;;;;;;;2.57;1.10;;;;;;;28.87;30.09;100457.91;18294004;32;219795;-65
2022/05/21 13:04:48;;;;;;;1.40;1.17;;;;;;;28.79;31.50;100443.25;18300006;32;20124;-67
2022/05/21 13:14:56;;;;;;;3.10;1.30;;;;;;;29.72;31.68;100437.66;18297524;32;20109;-67
2022/05/21 13:25:02;;;;;;;2.72;1.02;;;;;;;29.56;30.46;100446.16;18297550;32;20150;-66
2022/05/21 13:35:20;;;;;;;2.90;1.20;;;;;;;29.39;31.06;100435.91;18299832;32;20447;-66
2022/05/21 13:45:28;;;;;;;2.60;0.90;;;;;;;28.73;32.22;100435.66;18297283;32;20089;-66
2022/05/21 13:55:33;;;;;;;3.53;1.10;;;;;;;29.26;30.94;100430.66;18301744;32;20124;-66
2022/05/21 14:05:49;;;;;;;2.67;0.90;;;;;;;28.73;32.19;100414.16;18315808;32;20101;-66
2022/05/21 14:15:54;;;;;;;1.60;1.05;;;;;;;28.45;29.62;100408.28;18318261;32;20123;-66
2022/05/21 14:26:11;;;;;;;0.85;0.70;;;;;;;28.63;29.60;100399.75;18300848;32;20107;-66
2022/05/21 14:36:24;;;;;;;1.65;0.80;;;;;;;28.65;24.85;100393.31;18300435;32;20153;-65
2022/05/21 14:56:49;;;;;;;1.05;0.62;;;;;;;28.52;23.59;100379.13;18296633;32;20116;-65
2022/05/21 15:06:52;;;;;;;1.37;0.68;;;;;;;28.39;22.47;100384.59;18296301;32;20105;-66
2022/05/21 15:16:57;;;;;;;1.83;0.62;;;;;;;28.47;22.23;100375.97;18296029;32;20108;-66
2022/05/21 15:27:00;;;;;;;2.47;0.68;;;;;;;28.11;23.48;100362.56;18305890;32;20205;-67
2022/05/21 15:37:06;;;;;;;1.62;0.77;;;;;;;27.86;23.76;100350.19;18304156;32;20390;-66
2022/05/21 15:47:09;;;;;;;1.75;0.70;;;;;;;28.07;24.82;100348.50;18306839;32;20438;-65
2022/05/21 15:57:14;;;;;;;1.70;0.70;;;;;;;27.82;25.43;100328.97;18306281;32;20101;-65
2022/05/21 16:07:17;;;;;;;2.03;0.98;;;;;;;27.34;26.33;100312.91;18292075;32;20112;-65
2022/05/21 16:17:22;;;;;;;1.10;0.60;;;;;;;27.32;28.06;100314.81;18306025;32;20147;-65
2022/05/21 16:27:26;;;;;;;0.73;0.52;;;;;;;27.34;27.45;100318.28;18305477;32;20151;-67
2022/05/21 16:37:31;;;;;;;1.02;0.77;;;;;;;27.12;27.70;100310.00;18304814;32;20109;-65
2022/05/21 16:47:35;;;;;;;1.10;0.60;;;;;;;27.13;27.40;100317.06;18302759;32;20090;-65
2022/05/21 16:57:40;;;;;;;0.80;0.60;;;;;;;26.52;27.38;100317.84;18302094;32;20106;-65
2022/05/21 17:07:44;;;;;;;4.32;1.48;;;;;;;26.40;28.30;100306.16;18305177;32;20143;-66
2022/05/21 17:17:49;;;;;;;0.70;0.70;;;;;;;26.42;28.17;100309.59;18304329;32;20111;-65
2022/05/21 17:38:15;;;;;;;1.12;0.75;;;;;;;25.66;28.48;100317.44;18289088;32;20093;-65
2022/05/21 17:48:19;;;;;;;1.20;0.62;;;;;;;25.19;27.82;100314.25;18299659;32;20429;-65
2022/05/21 17:58:24;;;;;;;1.05;0.60;;;;;;;25.38;28.39;100324.59;18302466;32;20101;-65
2022/05/21 18:08:29;;;;;;;1.17;0.77;;;;;;;24.68;28.15;100334.34;18302119;32;20116;-65
2022/05/21 18:28:57;;;;;;;0.75;0.60;;;;;;;24.14;30.16;100338.50;18297876;32;20116;-65
2022/05/21 18:39:03;;;;;;;0.43;0.43;;;;;;;24.02;30.58;100337.38;18297810;32;20458;-65
2022/05/21 18:49:06;;;;;;;0.60;0.60;;;;;;;23.64;30.27;100338.72;18297708;32;20113;-65
2022/05/21 18:59:12;;;;;;;1.75;0.80;;;;;;;23.52;29.91;100350.06;18282963;32;20116;-65
2022/05/21 19:09:16;;;;;;;5.93;2.83;;;;;;;23.25;29.78;100348.03;18307115;32;20366;-65
2022/05/21 19:19:20;;;;;;;1.33;0.73;;;;;;;23.07;30.49;100355.22;18308040;32;20120;-65
2022/05/21 19:29:25;;;;;;;1.77;0.85;;;;;;;23.00;29.25;100360.03;18307760;32;20497;-64
2022/05/21 19:49:52;;;;;;;1.67;0.90;;;;;;;23.27;29.44;100391.41;18307585;32;20163;-65
2022/05/21 19:59:57;;;;;;;2.28;0.80;;;;;;;22.76;32.20;100402.13;18308000;32;20113;-65
2022/05/21 20:10:00;;;;;;;2.22;0.90;;;;;;;22.43;33.82;100417.09;18306095;32;20101;-65
2022/05/21 20:20:05;;;;;;;2.20;0.90;;;;;;;22.08;35.83;100425.06;18304174;32;20133;-65
2022/05/21 20:30:10;;;;;;;1.27;0.90;;;;;;;21.56;37.75;100434.66;18300040;32;20102;-65
2022/05/21 20:40:15;;;;;;;2.45;0.90;;;;;;;20.86;40.06;100436.03;18300243;32;20112;-65
2022/05/21 20:50:19;;;;;;;1.52;1.10;;;;;;;20.43;43.34;100444.03;18303816;32;20101;-65
2022/05/21 21:00:24;;;;;;;2.20;1.30;;;;;;;20.46;40.38;100443.06;18303882;32;20097;-66
2022/05/21 21:10:27;;;;;;;2.03;1.10;;;;;;;20.59;40.13;100441.63;18293985;32;20113;-65
2022/05/21 21:20:34;;;;;;;1.80;1.20;;;;;;;20.38;41.35;100443.41;18343258;32;20104;-64
2022/05/21 21:30:40;;;;;;;1.65;1.10;;;;;;;19.82;43.39;100437.69;18362970;32;20108;-64
2022/05/21 21:40:45;;;;;;;4.53;1.30;;;;;;;19.09;47.68;100443.16;18367334;32;20133;-64
2022/05/21 21:50:49;;;;;;;2.87;1.40;;;;;;;18.80;45.95;100445.91;18367808;32;20112;-64
2022/05/21 22:01:26;;;;;;;4.75;1.60;;;;;;;18.91;46.27;100450.81;18367018;32;20113;-64
2022/05/21 22:11:30;;;;;;;1.77;1.20;;;;;;;19.61;43.87;100456.19;18366917;32;20097;-64
2022/05/21 22:21:34;;;;;;;0.95;0.90;;;;;;;19.81;42.49;100452.72;18352697;32;20098;-64
2022/05/21 22:31:38;;;;;;;1.25;1.10;;;;;;;20.28;40.96;100453.50;18368096;32;20101;-64
2022/05/21 22:41:43;;;;;;;4.40;1.77;;;;;;;19.93;41.36;100462.00;18373105;32;20097;-64
2022/05/21 22:51:47;;;;;;;2.50;1.20;;;;;;;19.88;44.15;100463.97;18373060;32;20099;-64
2022/05/21 23:01:52;;;;;;;2.15;1.52;;;;;;;19.52;45.47;100459.19;18372346;32;20188;-64
2022/05/21 23:11:55;;;;;;;5.97;1.45;;;;;;;19.04;47.51;100458.31;18371848;32;20120;-64
2022/05/21 23:32:21;;;;;;;2.33;1.42;;;;;;;19.67;41.35;100447.13;18358324;32;20111;-64
2022/05/21 23:42:25;;;;;;;1.90;1.10;;;;;;;19.63;41.85;100440.22;18356051;32;20093;-64
2022/05/21 23:52:29;;;;;;;1.60;1.17;;;;;;;18.94;46.89;100432.16;18371046;32;20093;-64
